Time;durP1;ratioP1;P1;durP2;ratioP2;P2;SDS_P1;SDS_P2;PMS_P1;PMS_P2;Temp;Humidity;BMP_temperature;BMP_pressure;BME280_temperature;BME280_humidity;BME280_pressure;Samples;Min_cycle;Max_cycle;Signal;HPM_P1;HPM_P2
2023/10/20 00:00:51;;;;;;;0.73;0.73;;;;;;;-0.82;71.72;100204.81;5026498;28;20018;-60
2023/10/20 00:03:17;;;;;;;0.80;0.77;;;;;;;-0.84;71.76;100201.31;5026323;28;20048;-61
2023/10/20 00:05:42;;;;;;;0.50;0.50;;;;;;;-0.93;72.03;100195.13;5025205;28;20057;-60
2023/10/20 00:08:08;;;;;;;0.50;0.50;;;;;;;-0.90;72.08;100194.34;5026261;28;20040;-60
2023/10/20 00:10:36;;;;;;;0.60;0.60;;;;;;;-0.92;72.20;100189.19;5026289;28;20022;-60
2023/10/20 00:13:06;;;;;;;0.70;0.70;;;;;;;-0.91;72.29;100197.72;5026393;28;20025;-59
2023/10/20 00:15:31;;;;;;;0.70;0.70;;;;;;;-0.98;72.52;100185.56;5026298;28;20021;-60
2023/10/20 00:17:57;;;;;;;0.50;0.50;;;;;;;-0.95;72.62;100206.06;5026066;28;20029;-60
2023/10/20 00:20:22;;;;;;;0.70;0.70;;;;;;;-0.96;72.56;100195.00;5024699;28;20025;-59
2023/10/20 00:22:48;;;;;;;0.75;0.70;;;;;;;-0.95;72.66;100194.19;5025925;28;20026;-60
2023/10/20 00:25:13;;;;;;;0.80;0.80;;;;;;;-0.88;72.45;100192.72;5025690;28;20022;-59
2023/10/20 00:27:41;;;;;;;0.50;0.50;;;;;;;-0.90;72.97;100189.25;5025984;28;20036;-60
2023/10/20 00:30:10;;;;;;;0.50;0.50;;;;;;;-0.87;72.97;100189.34;5025606;28;20021;-60
2023/10/20 00:32:39;;;;;;;0.50;0.50;;;;;;;-0.90;73.15;100197.78;5025844;28;20026;-60
2023/10/20 00:35:05;;;;;;;0.57;0.57;;;;;;;-0.96;73.33;100189.03;5025401;28;20026;-60
2023/10/20 00:37:31;;;;;;;0.60;0.60;;;;;;;-0.95;73.27;100175.47;5025637;28;20026;-61
2023/10/20 00:39:59;;;;;;;1.30;1.20;;;;;;;-0.82;73.14;100195.50;5025735;28;20026;-60
2023/10/20 00:42:25;;;;;;;0.70;0.70;;;;;;;-0.66;73.04;100199.44;5025931;28;20090;-61
2023/10/20 00:44:50;;;;;;;0.50;0.50;;;;;;;-0.85;73.30;100190.28;5025767;28;20026;-59
2023/10/20 00:47:17;;;;;;;0.80;0.70;;;;;;;-0.89;73.65;100185.88;5025700;28;20022;-59
2023/10/20 00:49:45;;;;;;;1.30;1.20;;;;;;;-0.91;73.92;100193.47;5025685;28;20105;-56
2023/10/20 00:52:11;;;;;;;0.63;0.60;;;;;;;-0.83;73.64;100181.00;5025426;28;20034;-59
2023/10/20 00:54:37;;;;;;;0.50;0.50;;;;;;;-0.87;73.70;100179.16;5025658;28;20032;-62
2023/10/20 00:57:02;;;;;;;0.50;0.50;;;;;;;-0.81;73.70;100173.38;5025572;28;20022;-58
2023/10/20 00:59:28;;;;;;;2.33;0.73;;;;;;;-0.88;73.79;100177.44;5024350;28;20462;-60
2023/10/20 01:01:54;;;;;;;1.00;0.68;;;;;;;-0.89;74.05;100191.84;5025297;28;20425;-60
2023/10/20 01:04:19;;;;;;;0.90;0.90;;;;;;;-0.85;73.93;100180.09;5025616;28;20022;-59
2023/10/20 01:06:48;;;;;;;0.50;0.50;;;;;;;-0.87;73.92;100171.50;5025234;28;20033;-60
2023/10/20 01:09:22;;;;;;;0.55;0.50;;;;;;;-0.88;74.06;100169.78;5025169;28;20030;-59
2023/10/20 01:11:48;;;;;;;1.67;1.48;;;;;;;-0.88;73.97;100187.63;5025432;28;20106;-60
2023/10/20 01:14:13;;;;;;;0.50;0.50;;;;;;;-0.91;74.14;100170.53;5025335;28;20045;-60
2023/10/20 01:16:38;;;;;;;0.60;0.60;;;;;;;-0.97;74.04;100161.78;5025505;28;20014;-59
2023/10/20 01:19:04;;;;;;;1.88;1.77;;;;;;;-0.91;74.29;100173.09;5025231;28;20018;-59
2023/10/20 01:21:30;;;;;;;0.50;0.50;;;;;;;-1.02;74.38;100159.97;5025188;28;20041;-60
2023/10/20 01:23:55;;;;;;;0.70;0.70;;;;;;;-0.92;74.46;100166.25;5025450;28;20022;-61
2023/10/20 01:26:21;;;;;;;0.60;0.60;;;;;;;-0.93;74.55;100168.75;5024976;28;20042;-60
2023/10/20 01:28:46;;;;;;;0.60;0.60;;;;;;;-0.91;74.50;100152.69;5025302;28;20125;-60
2023/10/20 01:31:12;;;;;;;2.13;1.50;;;;;;;-0.91;74.68;100178.19;5023863;28;20030;-60
2023/10/20 01:33:37;;;;;;;0.60;0.60;;;;;;;-0.91;74.94;100172.22;5025301;28;20030;-60
2023/10/20 01:36:03;;;;;;;0.70;0.70;;;;;;;-0.95;75.16;100160.19;5025107;28;20052;-59
2023/10/20 01:38:29;;;;;;;3.70;1.15;;;;;;;-0.89;75.00;100165.50;5025143;28;20026;-59
2023/10/20 01:40:55;;;;;;;1.65;1.55;;;;;;;-0.92;75.15;100150.97;5024778;28;20064;-60
2023/10/20 01:43:20;;;;;;;1.08;1.08;;;;;;;-0.90;75.18;100148.47;5025083;28;20081;-60
2023/10/20 01:45:45;;;;;;;0.93;0.93;;;;;;;-0.86;75.19;100144.34;5025135;28;20022;-60
2023/10/20 01:48:11;;;;;;;2.85;1.00;;;;;;;-0.92;75.29;100156.06;5026986;28;20108;-60
2023/10/20 01:50:37;;;;;;;0.70;0.70;;;;;;;-0.85;75.59;100134.22;5028688;28;20049;-60
2023/10/20 01:53:02;;;;;;;0.60;0.60;;;;;;;-0.83;75.43;100118.97;5028885;28;20022;-60
2023/10/20 01:55:28;;;;;;;1.38;1.25;;;;;;;-0.79;75.60;100131.88;5028968;28;20032;-60
2023/10/20 01:57:53;;;;;;;0.70;0.70;;;;;;;-0.83;75.51;100141.91;5029072;28;20032;-60
2023/10/20 02:00:19;;;;;;;0.55;0.55;;;;;;;-0.84;75.79;100151.22;5028634;28;20049;-57
2023/10/20 02:02:44;;;;;;;1.40;1.30;;;;;;;-0.77;75.62;100129.38;5028793;28;20488;-60
2023/10/20 02:05:10;;;;;;;0.50;0.50;;;;;;;-0.78;75.61;100118.28;5028523;28;20049;-63
2023/10/20 02:07:36;;;;;;;1.60;1.50;;;;;;;-0.83;75.81;100119.81;5028284;28;20105;-60
2023/10/20 02:10:02;;;;;;;0.63;0.63;;;;;;;-0.75;75.98;100128.59;5028530;28;20085;-60
2023/10/20 02:12:27;;;;;;;1.05;1.02;;;;;;;-0.77;75.75;100125.09;5028717;28;20057;-60
2023/10/20 02:14:53;;;;;;;0.93;0.70;;;;;;;-0.74;75.50;100119.28;5028519;28;20034;-60
2023/10/20 02:17:19;;;;;;;0.52;0.52;;;;;;;-0.69;75.51;100112.66;5028567;28;20073;-60
2023/10/20 02:19:45;;;;;;;0.50;0.50;;;;;;;-0.72;75.67;100116.78;5028173;28;20029;-60
2023/10/20 02:22:10;;;;;;;0.50;0.50;;;;;;;-0.77;75.53;100103.88;5028076;28;20026;-58
2023/10/20 02:24:36;;;;;;;0.60;0.60;;;;;;;-0.73;75.36;100100.59;5028498;28;20026;-60
2023/10/20 02:27:01;;;;;;;0.50;0.50;;;;;;;-0.56;75.29;100107.94;5028048;28;20038;-60
2023/10/20 02:29:27;;;;;;;0.98;0.98;;;;;;;-0.61;75.62;100106.91;5028142;28;20029;-61
2023/10/20 02:31:52;;;;;;;0.40;0.40;;;;;;;-0.63;75.54;100100.09;5028316;28;20410;-60
2023/10/20 02:34:17;;;;;;;0.50;0.50;;;;;;;-0.52;75.90;100120.84;5028070;28;20036;-60
2023/10/20 02:36:43;;;;;;;0.93;0.55;;;;;;;-0.55;75.49;100117.31;5027859;28;20072;-60
2023/10/20 02:39:08;;;;;;;0.75;0.75;;;;;;;-0.57;75.75;100098.53;5028130;28;20026;-59
2023/10/20 02:41:33;;;;;;;0.70;0.70;;;;;;;-0.49;75.60;100092.00;5027986;28;20048;-60
2023/10/20 02:43:59;;;;;;;0.73;0.60;;;;;;;-0.55;75.46;100092.69;5028000;28;20021;-59
2023/10/20 02:46:24;;;;;;;0.68;0.68;;;;;;;-0.56;75.56;100088.38;5027909;28;20048;-60
2023/10/20 02:48:50;;;;;;;0.60;0.60;;;;;;;-0.43;75.27;100094.75;5027820;28;20026;-60
2023/10/20 02:51:15;;;;;;;1.15;0.95;;;;;;;-0.50;75.65;100087.72;5027849;28;20021;-59
2023/10/20 02:53:41;;;;;;;0.80;0.80;;;;;;;-0.59;75.53;100073.00;5027636;28;20029;-60
2023/10/20 02:56:15;;;;;;;0.70;0.70;;;;;;;-0.42;75.55;100093.94;5027561;28;20026;-60
2023/10/20 02:58:43;;;;;;;1.02;1.02;;;;;;;-0.54;75.63;100091.84;5027208;28;20112;-60
2023/10/20 03:01:09;;;;;;;0.52;0.52;;;;;;;-0.48;75.65;100103.09;5027678;28;20033;-60
2023/10/20 03:03:35;;;;;;;0.52;0.52;;;;;;;-0.49;75.86;100097.09;5027623;28;20081;-60
2023/10/20 03:06:02;;;;;;;1.13;1.13;;;;;;;-0.46;75.77;100091.25;5027526;28;20030;-60
2023/10/20 03:08:29;;;;;;;0.88;0.88;;;;;;;-0.55;75.80;100095.25;5027308;28;20025;-59
2023/10/20 03:10:56;;;;;;;0.50;0.50;;;;;;;-0.53;75.63;100088.47;5027454;28;20026;-60
2023/10/20 03:13:22;;;;;;;0.45;0.45;;;;;;;-0.57;75.81;100076.47;5027610;28;20021;-60
2023/10/20 03:15:47;;;;;;;0.88;0.80;;;;;;;-0.56;75.87;100070.53;5027384;28;20028;-60
2023/10/20 03:18:14;;;;;;;0.60;0.60;;;;;;;-0.45;75.43;100075.13;5026049;28;20022;-60
2023/10/20 03:20:40;;;;;;;0.70;0.70;;;;;;;-0.41;75.49;100074.38;5027297;28;20075;-60
2023/10/20 03:23:05;;;;;;;0.98;0.65;;;;;;;-0.50;75.56;100063.06;5026894;28;20061;-59
2023/10/20 03:25:33;;;;;;;0.70;0.70;;;;;;;-0.46;76.13;100058.94;5027029;28;20089;-59
2023/10/20 03:27:59;;;;;;;0.98;0.73;;;;;;;-0.32;75.69;100071.28;5027197;28;20108;-60
2023/10/20 03:30:24;;;;;;;0.50;0.50;;;;;;;-0.23;75.80;100065.56;5027078;28;20053;-60
2023/10/20 03:32:50;;;;;;;0.50;0.50;;;;;;;-0.34;75.93;100045.72;5027208;28;20071;-60
2023/10/20 03:35:16;;;;;;;0.98;0.60;;;;;;;-0.15;75.97;100051.34;5027012;28;20029;-60
2023/10/20 03:37:41;;;;;;;0.50;0.50;;;;;;;-0.10;75.83;100062.56;5026731;28;20029;-60
2023/10/20 03:40:16;;;;;;;0.68;0.68;;;;;;;-0.05;76.02;100080.56;5026768;28;20045;-58
2023/10/20 03:42:42;;;;;;;1.25;1.25;;;;;;;0.05;75.86;100058.75;5026890;28;20471;-59
2023/10/20 03:45:09;;;;;;;0.47;0.47;;;;;;;-0.04;75.96;100065.31;5026761;28;20566;-60
2023/10/20 03:47:38;;;;;;;0.50;0.50;;;;;;;-0.01;76.25;100046.66;5026757;28;20018;-60
2023/10/20 03:50:14;;;;;;;0.50;0.50;;;;;;;-0.03;76.52;100050.84;5026579;28;20036;-59
2023/10/20 03:52:41;;;;;;;1.02;1.00;;;;;;;-0.04;76.69;100037.22;5026743;28;20026;-59
2023/10/20 03:55:08;;;;;;;0.55;0.55;;;;;;;0.07;76.75;100049.44;5026784;28;20029;-60
2023/10/20 03:57:34;;;;;;;0.60;0.60;;;;;;;0.09;76.71;100042.69;5026296;28;20053;-62
2023/10/20 04:00:14;;;;;;;0.50;0.50;;;;;;;0.15;76.98;100035.19;5026502;28;20026;-60
2023/10/20 04:02:40;;;;;;;1.45;1.35;;;;;;;0.18;77.07;100044.63;5026331;28;20030;-60
2023/10/20 04:05:06;;;;;;;1.13;0.90;;;;;;;0.28;77.14;100073.84;5026465;28;20061;-58
2023/10/20 04:07:32;;;;;;;0.77;0.77;;;;;;;0.38;77.11;100055.41;5024782;28;20021;-60
2023/10/20 04:09:59;;;;;;;0.65;0.65;;;;;;;0.31;77.18;100054.38;5025530;28;20042;-61
2023/10/20 04:12:27;;;;;;;1.15;0.95;;;;;;;0.40;77.22;100053.75;5026568;28;20030;-60
2023/10/20 04:14:55;;;;;;;0.60;0.60;;;;;;;0.38;77.42;100040.09;5026180;28;20022;-61
2023/10/20 04:17:21;;;;;;;0.75;0.75;;;;;;;0.35;77.51;100022.13;5026186;28;20022;-61
2023/10/20 04:19:46;;;;;;;0.60;0.60;;;;;;;0.50;77.41;100039.53;5025773;28;20026;-61
2023/10/20 04:22:13;;;;;;;0.95;0.90;;;;;;;0.54;77.55;100020.94;5025788;28;20045;-58
2023/10/20 04:24:39;;;;;;;0.40;0.40;;;;;;;0.63;77.54;100027.97;5025710;28;20033;-59
2023/10/20 04:27:05;;;;;;;7.40;1.67;;;;;;;0.66;77.47;100028.03;5025785;28;20045;-60
2023/10/20 04:29:47;;;;;;;1.40;1.30;;;;;;;0.64;77.80;100028.84;5025845;28;20029;-59
2023/10/20 04:43:42;;;;;;;0.70;0.70;;;;;;;0.92;77.99;100032.97;5025829;28;20036;-61
2023/10/20 04:51:46;;;;;;;0.50;0.50;;;;;;;0.86;78.54;100027.69;5025440;28;20112;-61
2023/10/20 04:54:22;;;;;;;0.50;0.50;;;;;;;0.85;78.60;100037.03;5025679;28;20085;-61
2023/10/20 04:59:31;;;;;;;0.55;0.55;;;;;;;0.87;79.18;100044.75;5025377;28;20036;-60
2023/10/20 05:02:10;;;;;;;3.42;0.93;;;;;;;0.87;79.27;100044.75;5025219;28;20041;-61
2023/10/20 05:04:40;;;;;;;0.73;0.73;;;;;;;0.87;79.33;100070.31;5025264;28;20033;-61
2023/10/20 05:07:08;;;;;;;0.50;0.50;;;;;;;0.82;79.45;100046.31;5025192;28;20036;-63
2023/10/20 05:09:40;;;;;;;0.70;0.70;;;;;;;0.90;79.53;100041.41;5025379;28;20041;-61
2023/10/20 05:12:06;;;;;;;0.47;0.47;;;;;;;0.88;79.67;100025.19;5025503;28;20080;-60
2023/10/20 05:14:31;;;;;;;2.47;0.75;;;;;;;0.85;79.92;100026.81;5025583;28;20026;-61
2023/10/20 05:16:57;;;;;;;1.27;0.93;;;;;;;0.82;80.13;100043.75;5025464;28;20083;-61
2023/10/20 05:19:23;;;;;;;0.70;0.70;;;;;;;0.91;80.03;100036.31;5024055;28;20030;-60
2023/10/20 05:21:48;;;;;;;0.70;0.70;;;;;;;0.87;79.91;100037.09;5025178;28;20037;-60
2023/10/20 05:24:14;;;;;;;0.73;0.73;;;;;;;0.80;80.24;100041.16;5025705;28;20033;-61
2023/10/20 05:26:39;;;;;;;0.50;0.50;;;;;;;0.79;80.40;100049.66;5023743;28;20132;-61
2023/10/20 05:29:05;;;;;;;0.55;0.55;;;;;;;0.82;80.33;100056.53;5025138;28;20029;-61
2023/10/20 05:31:30;;;;;;;2.47;0.90;;;;;;;0.78;80.45;100042.84;5025563;28;20022;-61
2023/10/20 05:33:56;;;;;;;0.50;0.50;;;;;;;0.74;80.52;100041.88;5025085;28;20118;-61
2023/10/20 05:36:21;;;;;;;0.75;0.75;;;;;;;0.77;80.70;100050.47;5025317;28;20098;-61
2023/10/20 05:38:47;;;;;;;0.40;0.40;;;;;;;0.82;80.70;100061.66;5025053;28;20482;-60
2023/10/20 05:41:12;;;;;;;2.63;0.80;;;;;;;0.85;80.62;100059.16;5025064;28;20049;-60
2023/10/20 05:43:38;;;;;;;3.25;0.80;;;;;;;0.86;80.49;100049.00;5025115;28;20040;-60
2023/10/20 05:46:04;;;;;;;1.08;0.80;;;;;;;0.90;80.68;100070.38;5025025;28;20030;-62
2023/10/20 05:48:30;;;;;;;0.47;0.47;;;;;;;0.94;80.36;100061.97;5025160;28;20026;-61
2023/10/20 05:50:57;;;;;;;0.40;0.40;;;;;;;0.88;80.92;100077.16;5024910;28;20029;-62
2023/10/20 05:53:23;;;;;;;0.60;0.60;;;;;;;0.97;80.93;100081.63;5024705;28;20026;-61
2023/10/20 05:55:49;;;;;;;0.95;0.82;;;;;;;0.97;81.00;100061.19;5025231;28;20026;-61
2023/10/20 05:58:14;;;;;;;0.40;0.40;;;;;;;0.95;81.27;100058.59;5025118;28;20472;-60
2023/10/20 06:00:39;;;;;;;0.50;0.50;;;;;;;1.03;81.17;100056.22;5025121;28;20030;-61
2023/10/20 06:03:06;;;;;;;0.80;0.80;;;;;;;1.12;80.90;100047.91;5025014;28;20113;-60
2023/10/20 06:05:31;;;;;;;0.57;0.57;;;;;;;1.09;80.80;100061.50;5025014;28;20033;-61
2023/10/20 06:07:56;;;;;;;0.55;0.55;;;;;;;1.08;80.92;100053.78;5024957;28;20026;-61
2023/10/20 06:10:22;;;;;;;1.00;0.90;;;;;;;0.95;81.16;100037.28;5024901;28;20086;-61
2023/10/20 06:12:52;;;;;;;1.30;1.02;;;;;;;1.13;80.99;100046.22;5025163;28;20226;-60
2023/10/20 06:15:19;;;;;;;0.80;0.80;;;;;;;1.17;80.81;100040.34;5025026;28;20451;-61
2023/10/20 06:17:45;;;;;;;0.55;0.55;;;;;;;1.19;80.81;100044.69;5024955;28;20022;-61
2023/10/20 06:20:10;;;;;;;0.70;0.60;;;;;;;1.22;80.94;100044.75;5024830;28;20048;-61
2023/10/20 06:22:36;;;;;;;7.10;1.17;;;;;;;1.18;81.12;100042.94;5024560;28;20050;-61
2023/10/20 06:25:01;;;;;;;0.50;0.50;;;;;;;1.27;80.84;100028.66;5024936;28;20530;-61
2023/10/20 06:27:26;;;;;;;0.60;0.60;;;;;;;1.33;80.89;100041.59;5024839;28;20061;-62
2023/10/20 06:30:06;;;;;;;0.77;0.77;;;;;;;1.34;81.00;100027.97;5024816;28;20033;-61
2023/10/20 06:32:40;;;;;;;0.70;0.70;;;;;;;1.40;80.91;100040.91;5024979;28;20048;-61
2023/10/20 06:35:09;;;;;;;0.75;0.75;;;;;;;1.44;80.64;100029.03;5028218;28;20033;-60
2023/10/20 06:37:42;;;;;;;0.57;0.57;;;;;;;1.43;80.63;100035.00;5028228;28;20056;-61
2023/10/20 06:40:08;;;;;;;0.70;0.70;;;;;;;1.42;80.86;100036.69;5028096;28;20104;-62
2023/10/20 06:42:33;;;;;;;0.70;0.68;;;;;;;1.53;80.67;100038.63;5028502;28;20025;-61
2023/10/20 06:45:02;;;;;;;0.50;0.50;;;;;;;1.62;80.60;100031.16;5028378;28;20477;-61
2023/10/20 06:47:27;;;;;;;1.13;1.10;;;;;;;1.58;80.69;100029.38;5027031;28;20026;-61
2023/10/20 06:49:52;;;;;;;0.60;0.60;;;;;;;1.76;80.49;100045.97;5028068;28;20026;-60
2023/10/20 06:52:18;;;;;;;1.50;1.40;;;;;;;1.80;79.99;100042.63;5027906;28;20031;-60
2023/10/20 06:54:46;;;;;;;1.27;1.10;;;;;;;1.88;80.38;100024.88;5028169;28;20474;-61
2023/10/20 06:57:13;;;;;;;0.75;0.75;;;;;;;2.04;80.33;100024.38;5026739;28;20028;-61
2023/10/20 06:59:39;;;;;;;3.35;1.50;;;;;;;2.26;79.26;100024.78;5028130;28;20022;-62
2023/10/20 07:02:04;;;;;;;1.00;0.80;;;;;;;2.18;79.00;100023.75;5027932;28;20021;-61
2023/10/20 07:04:31;;;;;;;0.50;0.50;;;;;;;2.06;79.21;100021.84;5026708;28;20025;-61
2023/10/20 07:06:57;;;;;;;0.52;0.52;;;;;;;2.17;78.91;100025.44;5027515;28;20108;-60
2023/10/20 07:09:22;;;;;;;0.50;0.50;;;;;;;2.22;79.49;100039.22;5027721;28;20056;-61
2023/10/20 07:11:48;;;;;;;1.73;0.68;;;;;;;2.42;79.71;100008.00;5027826;28;20079;-60
2023/10/20 07:14:14;;;;;;;1.27;0.98;;;;;;;2.60;79.21;100006.63;5027732;28;20026;-61
2023/10/20 07:16:39;;;;;;;0.50;0.50;;;;;;;2.73;78.39;100025.66;5027625;28;20097;-61
2023/10/20 07:19:06;;;;;;;0.43;0.43;;;;;;;2.75;78.16;100013.69;5027608;28;20053;-61
2023/10/20 07:21:31;;;;;;;2.42;0.73;;;;;;;2.76;77.43;100017.13;5027471;28;20086;-61
2023/10/20 07:23:57;;;;;;;0.50;0.50;;;;;;;2.75;76.47;100007.72;5027439;28;20033;-59
2023/10/20 07:26:23;;;;;;;0.40;0.40;;;;;;;2.57;76.57;100011.69;5027151;28;20053;-59
2023/10/20 07:28:48;;;;;;;0.45;0.45;;;;;;;2.56;76.63;100003.13;5027430;28;20030;-62
2023/10/20 07:31:21;;;;;;;0.93;0.70;;;;;;;2.62;76.38;100011.78;5027355;28;20097;-60
2023/10/20 07:33:49;;;;;;;0.70;0.70;;;;;;;2.63;76.48;100008.38;5027541;28;20037;-61
2023/10/20 07:36:14;;;;;;;0.63;0.63;;;;;;;2.73;75.52;100006.00;5027401;28;20045;-62
2023/10/20 07:38:41;;;;;;;0.50;0.50;;;;;;;2.60;75.47;100014.31;5027292;28;20030;-61
2023/10/20 07:41:11;;;;;;;0.73;0.73;;;;;;;2.54;75.75;100014.22;5027080;28;20057;-61
2023/10/20 07:43:37;;;;;;;0.70;0.70;;;;;;;2.48;76.25;100008.13;5027296;28;20056;-61
2023/10/20 07:46:02;;;;;;;0.52;0.52;;;;;;;2.59;76.24;100010.00;5027067;28;20109;-61
2023/10/20 07:48:28;;;;;;;0.50;0.50;;;;;;;2.68;75.75;100017.88;5027097;28;20033;-60
2023/10/20 07:50:55;;;;;;;0.60;0.60;;;;;;;2.62;75.97;100002.38;5026829;28;20082;-61
2023/10/20 07:53:21;;;;;;;0.60;0.60;;;;;;;2.56;75.76;99990.31;5025645;28;20033;-60
2023/10/20 07:55:46;;;;;;;0.63;0.60;;;;;;;2.69;75.35;99995.66;5027069;28;20029;-61
2023/10/20 07:58:11;;;;;;;0.70;0.60;;;;;;;2.56;75.89;99997.13;5026947;28;20029;-60
2023/10/20 08:00:37;;;;;;;0.85;0.60;;;;;;;2.70;76.11;99982.88;5025380;28;20071;-60
2023/10/20 08:03:03;;;;;;;0.50;0.50;;;;;;;2.72;76.42;99970.06;5026868;28;20025;-59
2023/10/20 08:05:28;;;;;;;0.40;0.40;;;;;;;2.93;75.52;99982.41;5026745;28;20026;-61
2023/10/20 08:10:19;;;;;;;1.50;1.45;;;;;;;3.20;74.91;99973.41;5013909;23;20034;-61
2023/10/20 08:12:44;;;;;;;0.52;0.50;;;;;;;3.48;74.96;99970.38;5006677;28;20088;-61
2023/10/20 08:15:10;;;;;;;1.05;1.02;;;;;;;3.74;73.69;99976.69;5006668;28;20022;-60
2023/10/20 08:17:36;;;;;;;0.50;0.50;;;;;;;3.60;73.15;99964.53;5006677;28;20026;-60
2023/10/20 08:20:07;;;;;;;0.93;0.93;;;;;;;3.54;73.48;99954.19;4982826;23;20050;-61
2023/10/20 08:22:32;;;;;;;0.40;0.40;;;;;;;3.61;72.83;99950.84;4987193;28;20453;-61
2023/10/20 08:24:57;;;;;;;0.68;0.60;;;;;;;3.59;72.60;99952.53;4987177;28;20498;-61
2023/10/20 08:27:23;;;;;;;0.70;0.70;;;;;;;3.54;73.04;99946.47;4987348;28;20031;-61
2023/10/20 08:29:49;;;;;;;0.73;0.73;;;;;;;3.74;73.10;99982.66;4987259;28;20328;-62
2023/10/20 08:32:15;;;;;;;0.40;0.40;;;;;;;3.85;72.18;99959.69;4987200;28;20050;-60
2023/10/20 08:34:40;;;;;;;1.63;1.52;;;;;;;3.82;72.09;99970.78;5002149;28;20027;-61
2023/10/20 08:37:06;;;;;;;0.40;0.40;;;;;;;4.13;70.72;99960.03;4986369;28;20026;-60
2023/10/20 08:39:31;;;;;;;0.40;0.40;;;;;;;3.99;70.82;99982.13;4986822;28;20054;-61
2023/10/20 08:41:59;;;;;;;0.52;0.52;;;;;;;3.80;71.29;99990.44;4986983;28;20618;-60
2023/10/20 08:44:24;;;;;;;0.85;0.85;;;;;;;3.62;71.85;99960.28;5001885;28;20027;-59
2023/10/20 08:46:51;;;;;;;0.40;0.40;;;;;;;3.62;72.00;99947.44;4987045;28;20026;-61
2023/10/20 08:49:18;;;;;;;0.63;0.63;;;;;;;3.72;71.92;99951.00;4986800;28;20058;-61
2023/10/20 08:51:46;;;;;;;0.50;0.50;;;;;;;3.67;71.84;99966.34;4986682;28;20026;-61
2023/10/20 08:54:13;;;;;;;0.43;0.43;;;;;;;3.68;72.03;99960.34;4985901;28;20066;-61
2023/10/20 08:56:40;;;;;;;0.70;0.70;;;;;;;3.69;71.83;99944.09;4986780;28;20027;-60
2023/10/20 08:59:05;;;;;;;0.70;0.70;;;;;;;3.67;72.12;99961.22;4987016;28;20030;-60
2023/10/20 09:01:31;;;;;;;0.40;0.40;;;;;;;3.63;72.04;99930.31;4986816;28;20103;-60
2023/10/20 09:03:57;;;;;;;0.60;0.60;;;;;;;3.75;72.42;99955.28;4986927;28;20113;-60
2023/10/20 09:06:25;;;;;;;0.63;0.63;;;;;;;3.95;72.02;99930.72;4985203;28;20024;-61
2023/10/20 09:08:51;;;;;;;0.50;0.50;;;;;;;3.94;71.65;99943.53;4986532;28;20054;-61
2023/10/20 09:11:30;;;;;;;0.60;0.60;;;;;;;4.01;71.16;99936.78;4986725;28;20031;-60
2023/10/20 09:13:56;;;;;;;0.60;0.60;;;;;;;3.95;71.16;99942.69;4986999;28;20087;-61
2023/10/20 09:16:23;;;;;;;0.40;0.40;;;;;;;3.89;71.31;99951.19;4986831;28;20070;-61
2023/10/20 09:18:50;;;;;;;0.55;0.55;;;;;;;3.88;71.34;99970.03;4986763;28;20035;-61
2023/10/20 09:21:18;;;;;;;1.30;1.20;;;;;;;3.81;71.86;99993.88;4986371;28;20053;-62
2023/10/20 09:23:57;;;;;;;0.63;0.63;;;;;;;3.95;70.52;99940.97;4986639;28;20507;-63
2023/10/20 09:26:24;;;;;;;0.50;0.50;;;;;;;4.09;70.28;99956.53;4986570;28;20034;-60
2023/10/20 09:28:53;;;;;;;0.57;0.57;;;;;;;4.21;69.97;99953.25;4986698;28;20038;-60
2023/10/20 09:31:19;;;;;;;0.47;0.47;;;;;;;4.45;69.23;99969.78;4986450;28;20022;-60
2023/10/20 09:33:45;;;;;;;0.47;0.47;;;;;;;4.58;68.25;99959.59;4986594;28;20027;-60
2023/10/20 09:36:11;;;;;;;1.90;1.80;;;;;;;4.62;67.75;99948.47;4986098;28;20027;-60
2023/10/20 09:38:37;;;;;;;0.40;0.40;;;;;;;4.81;67.36;99952.06;4986354;28;20050;-61
2023/10/20 09:41:11;;;;;;;0.70;0.70;;;;;;;5.16;66.21;99950.59;4986352;28;20023;-62
2023/10/20 09:43:49;;;;;;;0.50;0.50;;;;;;;5.10;66.12;99965.16;4986399;28;20037;-60
2023/10/20 09:46:39;;;;;;;0.77;0.63;;;;;;;5.06;66.12;99975.41;4986375;28;20046;-60
2023/10/20 09:49:14;;;;;;;2.05;1.95;;;;;;;5.27;64.41;99962.69;4986570;28;20038;-60
2023/10/20 09:51:43;;;;;;;0.73;0.73;;;;;;;5.20;63.73;100014.13;4986257;28;20023;-61
2023/10/20 09:54:08;;;;;;;0.40;0.40;;;;;;;4.91;64.24;99945.28;4986398;28;20502;-61
2023/10/20 09:56:34;;;;;;;0.50;0.50;;;;;;;5.11;65.00;99936.88;5001338;28;20095;-61
2023/10/20 09:59:00;;;;;;;0.40;0.40;;;;;;;5.25;63.68;99941.22;4986408;28;20030;-60
2023/10/20 10:01:25;;;;;;;0.50;0.50;;;;;;;5.31;63.13;99954.13;4986246;28;20023;-61
2023/10/20 10:04:03;;;;;;;0.50;0.50;;;;;;;5.13;63.82;99935.13;4986266;28;20105;-62
2023/10/20 10:06:36;;;;;;;0.50;0.50;;;;;;;5.08;63.55;99934.25;4986293;28;20022;-60
2023/10/20 10:09:04;;;;;;;0.40;0.40;;;;;;;5.10;63.63;99935.13;4988030;28;20027;-61
2023/10/20 10:11:31;;;;;;;0.50;0.50;;;;;;;5.11;63.61;99925.69;4989899;28;20073;-61
2023/10/20 10:14:02;;;;;;;0.40;0.40;;;;;;;5.12;63.53;99940.28;4989778;28;20502;-60
2023/10/20 10:16:28;;;;;;;0.80;0.80;;;;;;;5.27;63.00;99924.09;4989929;28;20086;-60
2023/10/20 10:18:56;;;;;;;19.67;1.77;;;;;;;5.29;62.80;99935.22;4989323;28;20030;-62
2023/10/20 10:21:32;;;;;;;0.50;0.50;;;;;;;5.39;61.62;99911.28;4989015;28;20392;-60
2023/10/20 10:24:14;;;;;;;0.40;0.40;;;;;;;5.21;62.42;99920.59;5004533;28;20149;-60
2023/10/20 10:26:50;;;;;;;0.50;0.50;;;;;;;5.40;61.15;99945.59;4989748;28;20030;-60
2023/10/20 10:29:16;;;;;;;58.13;2.20;;;;;;;5.33;61.16;99890.66;4989569;28;20039;-60
2023/10/20 10:31:41;;;;;;;1.15;1.05;;;;;;;5.31;61.61;99923.22;4989581;28;20050;-60
2023/10/20 10:34:07;;;;;;;0.60;0.60;;;;;;;5.95;59.52;99914.06;4989577;28;20027;-61
2023/10/20 10:36:43;;;;;;;0.50;0.50;;;;;;;5.85;59.20;99930.34;4989478;28;20023;-61
2023/10/20 10:39:20;;;;;;;0.60;0.60;;;;;;;5.78;59.47;99913.16;4989437;28;20074;-60
2023/10/20 10:41:46;;;;;;;0.45;0.45;;;;;;;5.74;59.40;99927.72;4989413;28;20034;-61
2023/10/20 10:44:12;;;;;;;0.50;0.50;;;;;;;5.66;59.55;99919.97;4989407;28;20027;-61
2023/10/20 10:46:38;;;;;;;0.40;0.40;;;;;;;5.57;59.65;99904.47;5004220;28;20324;-60
2023/10/20 10:49:08;;;;;;;0.73;0.73;;;;;;;5.53;60.28;99915.59;4989508;28;20066;-61
2023/10/20 10:51:42;;;;;;;0.40;0.40;;;;;;;5.79;59.42;99909.69;4989214;28;20454;-61
2023/10/20 10:54:07;;;;;;;0.45;0.45;;;;;;;5.81;58.97;99941.50;4989267;28;20208;-61
2023/10/20 10:56:34;;;;;;;1.15;0.77;;;;;;;5.64;59.48;99880.47;4989098;28;20086;-60
2023/10/20 10:59:00;;;;;;;0.40;0.40;;;;;;;5.79;58.37;99904.56;4988966;28;20026;-61
2023/10/20 11:01:25;;;;;;;2.35;0.80;;;;;;;5.72;58.67;99907.97;4988948;28;20033;-61
2023/10/20 11:03:51;;;;;;;0.40;0.40;;;;;;;5.50;59.55;99893.28;4988917;28;20022;-60
2023/10/20 11:06:16;;;;;;;0.50;0.50;;;;;;;5.43;59.84;99900.13;4988945;28;20026;-60
2023/10/20 11:08:44;;;;;;;0.55;0.55;;;;;;;5.38;60.35;99906.13;4988872;28;20379;-60
2023/10/20 11:11:10;;;;;;;0.40;0.40;;;;;;;5.32;60.88;99918.09;4988622;28;20479;-61
2023/10/20 11:13:36;;;;;;;0.50;0.50;;;;;;;5.25;61.27;99920.63;4988776;28;20030;-63
2023/10/20 11:16:03;;;;;;;0.40;0.40;;;;;;;5.26;61.71;99915.47;4988679;28;20027;-61
2023/10/20 11:18:29;;;;;;;0.70;0.57;;;;;;;5.51;61.62;99969.66;4988827;28;20117;-61
2023/10/20 11:20:55;;;;;;;0.40;0.40;;;;;;;5.33;61.96;99929.25;4988145;28;20042;-60
2023/10/20 11:23:29;;;;;;;1.20;0.85;;;;;;;5.53;62.18;99936.19;4988814;28;20038;-60
2023/10/20 11:25:54;;;;;;;0.50;0.50;;;;;;;5.43;62.13;99915.56;4988433;28;20027;-62
2023/10/20 11:28:21;;;;;;;0.60;0.60;;;;;;;5.60;61.52;99924.22;4988810;28;20038;-61
2023/10/20 11:30:47;;;;;;;0.40;0.40;;;;;;;5.73;61.37;99902.81;4988156;28;20027;-61
2023/10/20 11:33:13;;;;;;;0.50;0.50;;;;;;;5.76;61.44;99871.94;5007996;28;20027;-61
2023/10/20 11:35:39;;;;;;;0.50;0.50;;;;;;;5.93;60.83;99897.72;5007588;28;20049;-60
2023/10/20 11:38:05;;;;;;;0.60;0.60;;;;;;;6.08;60.27;99908.97;5007898;28;20466;-62
2023/10/20 11:40:30;;;;;;;0.57;0.52;;;;;;;5.82;60.28;99905.44;5007514;28;20037;-61
2023/10/20 11:42:56;;;;;;;0.70;0.60;;;;;;;5.73;60.61;99914.84;5007796;28;20030;-60
2023/10/20 11:45:22;;;;;;;0.52;0.52;;;;;;;5.83;60.22;99950.09;5007813;28;20026;-61
2023/10/20 11:47:47;;;;;;;0.60;0.60;;;;;;;5.65;61.04;99949.16;5007458;28;20084;-60
2023/10/20 11:50:15;;;;;;;0.40;0.40;;;;;;;5.52;61.61;99943.09;5007549;28;20116;-59
2023/10/20 11:52:41;;;;;;;0.65;0.65;;;;;;;5.50;61.83;99949.06;5007507;28;20026;-61
2023/10/20 11:55:11;;;;;;;0.50;0.50;;;;;;;5.73;61.17;99878.78;5007589;28;20050;-62